Weather Station Data

Station Data Captured at Five Minute Intervals Since Midnight Yesterday


Date Time Temp. RH % Dew Pt. Wind Speed Wind Dir. Peak Wind Wind Chill Pressure Precip. Solar W/m2 ET
8/18/17 5:55p 83.2 57 66.4 3.0 WNW 12.0 83.2 29.836 0.00 409 0.000
8/18/17 5:50p 83.1 57 66.3 2.0 W 7.0 83.1 29.840 0.00 430 0.000
8/18/17 5:45p 83.1 56 65.8 5.0 WNW 11.0 83.1 29.840 0.00 450 0.000
8/18/17 5:40p 83.2 57 66.4 3.0 W 7.0 83.2 29.839 0.00 456 0.000
8/18/17 5:35p 83.1 58 66.8 4.0 NW 9.0 83.1 29.840 0.00 415 0.000
8/18/17 5:30p 83.1 58 66.8 3.0 NW 9.0 83.1 29.838 0.00 508 0.000
8/18/17 5:25p 82.7 58 66.4 3.0 WNW 9.0 82.7 29.836 0.00 472 0.000
8/18/17 5:20p 82.7 58 66.4 5.0 WNW 13.0 82.7 29.836 0.00 546 0.000
8/18/17 5:15p 83.0 57 66.2 3.0 W 12.0 83.0 29.836 0.00 485 0.000
8/18/17 5:10p 83.1 58 66.8 3.0 W 9.0 83.1 29.839 0.00 581 0.000
8/18/17 5:05p 82.9 59 67.1 4.0 WNW 8.0 82.9 29.840 0.00 625 0.000
8/18/17 5:00p 83.2 58 66.9 3.0 WNW 8.0 83.2 29.840 0.00 335 0.016
8/18/17 4:55p 83.1 59 67.3 3.0 W 9.0 83.1 29.840 0.00 574 0.000
8/18/17 4:50p 82.7 61 67.9 3.0 W 7.0 82.7 29.839 0.00 607 0.000
8/18/17 4:45p 82.5 59 66.7 4.0 W 11.0 82.5 29.843 0.00 568 0.000
8/18/17 4:40p 82.6 62 68.3 3.0 NW 8.0 82.6 29.838 0.00 631 0.000
8/18/17 4:35p 82.3 61 67.5 5.0 WNW 10.0 82.3 29.839 0.00 616 0.000
8/18/17 4:30p 82.6 61 67.8 5.0 WNW 11.0 82.6 29.838 0.00 717 0.000
8/18/17 4:25p 82.8 61 68.0 4.0 NW 11.0 82.8 29.838 0.00 715 0.000
8/18/17 4:20p 82.8 60 67.5 5.0 WNW 10.0 82.8 29.837 0.00 747 0.000
8/18/17 4:15p 82.8 58 66.5 5.0 W 10.0 82.8 29.840 0.00 776 0.000
8/18/17 4:10p 83.1 57 66.3 4.0 WNW 13.0 83.1 29.842 0.00 446 0.000
8/18/17 4:05p 83.1 62 68.7 3.0 WNW 9.0 83.1 29.845 0.00 783 0.000
8/18/17 4:00p 82.8 58 66.5 3.0 S 10.0 82.8 29.846 0.00 749 0.018
8/18/17 3:55p 82.8 59 67.0 6.0 W 13.0 82.8 29.846 0.00 768 0.000
8/18/17 3:50p 82.6 58 66.3 3.0 W 9.0 82.6 29.846 0.00 786 0.000
8/18/17 3:45p 82.4 61 67.6 4.0 W 10.0 82.4 29.845 0.00 748 0.000
8/18/17 3:40p 82.3 62 68.0 3.0 WNW 12.0 82.3 29.848 0.00 760 0.000
8/18/17 3:35p 82.3 62 68.0 2.0 WNW 8.0 82.3 29.850 0.00 192 0.000
8/18/17 3:30p 82.7 62 68.4 3.0 W 9.0 82.7 29.846 0.00 428 0.000
8/18/17 3:25p 82.5 60 67.2 4.0 NW 12.0 82.5 29.848 0.00 905 0.000
8/18/17 3:20p 82.2 58 66.0 4.0 W 9.0 82.2 29.847 0.00 854 0.000
8/18/17 3:15p 82.2 59 66.4 6.0 WNW 13.0 82.2 29.851 0.00 522 0.000
8/18/17 3:10p 82.3 60 67.0 3.0 WNW 8.0 82.3 29.850 0.00 879 0.000
8/18/17 3:05p 82.1 60 66.8 3.0 W 10.0 82.1 29.850 0.00 189 0.000
8/18/17 3:00p 82.7 59 66.9 4.0 WNW 13.0 82.7 29.852 0.00 181 0.021
8/18/17 2:55p 83.0 61 68.2 3.0 W 10.0 83.0 29.850 0.00 700 0.000
8/18/17 2:50p 82.7 60 67.4 3.0 WNW 8.0 82.7 29.852 0.00 908 0.000
8/18/17 2:45p 82.7 58 66.4 3.0 WNW 9.0 82.7 29.852 0.00 184 0.000
8/18/17 2:40p 82.9 56 65.6 4.0 WNW 11.0 82.9 29.852 0.00 980 0.000
8/18/17 2:35p 82.9 61 68.1 4.0 WNW 13.0 82.9 29.851 0.00 904 0.000
8/18/17 2:30p 83.0 58 66.7 4.0 W 11.0 83.0 29.853 0.00 863 0.000
8/18/17 2:25p 82.6 61 67.8 3.0 WNW 11.0 82.6 29.853 0.00 909 0.000
8/18/17 2:20p 82.2 62 67.9 4.0 WNW 9.0 82.2 29.855 0.00 971 0.000
8/18/17 2:15p 81.9 61 67.1 3.0 WNW 10.0 81.9 29.856 0.00 712 0.000
8/18/17 2:10p 81.4 63 67.6 3.0 WNW 8.0 81.4 29.855 0.00 862 0.000
8/18/17 2:05p 81.1 63 67.3 4.0 WNW 11.0 81.1 29.856 0.00 895 0.000
8/18/17 2:00p 80.3 67 68.3 3.0 WSW 9.0 80.3 29.855 0.00 773 0.016
8/18/17 1:55p 80.1 64 66.8 4.0 W 11.0 80.1 29.855 0.00 179 0.000
8/18/17 1:50p 80.7 62 66.5 3.0 W 8.0 80.7 29.854 0.00 154 0.000
8/18/17 1:45p 81.2 63 67.4 2.0 W 9.0 81.2 29.853 0.00 573 0.000
8/18/17 1:40p 81.3 61 66.6 4.0 NW 10.0 81.3 29.854 0.00 688 0.000
8/18/17 1:35p 81.0 65 68.1 4.0 WNW 12.0 81.0 29.854 0.00 878 0.000
8/18/17 1:30p 80.6 65 67.7 4.0 WNW 10.0 80.6 29.854 0.00 693 0.000
8/18/17 1:25p 80.4 67 68.4 3.0 W 10.0 80.4 29.853 0.00 899 0.000
8/18/17 1:20p 80.2 65 67.4 5.0 WNW 13.0 80.2 29.852 0.00 336 0.000
8/18/17 1:15p 80.6 66 68.2 6.0 NW 12.0 80.6 29.853 0.00 871 0.000
8/18/17 1:10p 80.3 67 68.3 4.0 NW 12.0 80.3 29.854 0.00 870 0.000
8/18/17 1:05p 80.0 65 67.2 4.0 WNW 10.0 80.0 29.856 0.00 245 0.000
8/18/17 1:00p 80.2 65 67.4 2.0 S 9.0 80.2 29.857 0.00 318 0.016
8/18/17 12:55p 80.7 68 69.2 3.0 SSW 10.0 80.7 29.856 0.00 339 0.000
8/18/17 12:50p 80.6 67 68.6 4.0 NW 11.0 80.6 29.854 0.00 888 0.000
8/18/17 12:45p 80.4 64 67.1 5.0 W 15.0 80.4 29.855 0.00 165 0.000
8/18/17 12:40p 80.6 67 68.6 4.0 WNW 8.0 80.6 29.851 0.00 563 0.000
8/18/17 12:35p 80.4 69 69.3 3.0 WNW 9.0 80.4 29.853 0.00 1009 0.000
8/18/17 12:30p 80.3 68 68.8 3.0 NW 7.0 80.3 29.853 0.00 188 0.000
8/18/17 12:25p 80.3 70 69.6 2.0 W 8.0 80.3 29.854 0.00 700 0.000
8/18/17 12:20p 79.8 70 69.1 4.0 W 10.0 79.8 29.854 0.00 862 0.000
8/18/17 12:15p 79.1 70 68.5 4.0 WNW 8.0 79.1 29.853 0.00 804 0.000
8/18/17 12:10p 78.9 69 67.9 4.0 WNW 9.0 78.9 29.854 0.00 836 0.000
8/18/17 12:05p 78.6 71 68.4 4.0 WNW 10.0 78.6 29.855 0.00 342 0.000
8/18/17 12:00p 78.7 71 68.5 4.0 W 10.0 78.7 29.855 0.00 637 0.013
8/18/17 11:55a 78.8 72 69.0 3.0 W 9.0 78.8 29.853 0.00 575 0.000
8/18/17 11:50a 78.7 70 68.1 4.0 WNW 12.0 78.7 29.853 0.00 828 0.000
8/18/17 11:45a 78.6 73 69.2 4.0 WSW 9.0 78.6 29.851 0.00 733 0.000
8/18/17 11:40a 78.2 77 70.4 3.0 NW 7.0 78.2 29.850 0.00 634 0.000
8/18/17 11:35a 78.2 73 68.8 5.0 NW 10.0 78.2 29.853 0.00 630 0.000
8/18/17 11:30a 77.8 76 69.6 3.0 W 9.0 77.8 29.853 0.00 765 0.000
8/18/17 11:25a 77.6 75 69.0 4.0 W 11.0 77.6 29.850 0.00 729 0.000
8/18/17 11:20a 77.6 78 70.2 2.0 S 7.0 77.6 29.849 0.00 233 0.000
8/18/17 11:15a 77.4 78 70.0 2.0 W 7.0 77.4 29.849 0.00 117 0.000
8/18/17 11:10a 76.9 77 69.1 3.0 WNW 5.0 76.9 29.847 0.00 91 0.000
8/18/17 11:05a 76.5 78 69.1 3.0 W 9.0 76.5 29.848 0.00 124 0.000
8/18/17 11:00a 76.4 80 69.8 2.0 S 7.0 76.4 29.846 0.00 77 0.003
8/18/17 10:55a 76.2 80 69.6 3.0 S 9.0 76.2 29.845 0.00 137 0.000
8/18/17 10:50a 76.2 80 69.6 3.0 W 8.0 76.2 29.845 0.00 266 0.000
8/18/17 10:45a 76.0 82 70.1 3.0 WNW 7.0 76.0 29.843 0.00 92 0.000
8/18/17 10:40a 75.7 82 69.8 2.0 WNW 8.0 75.7 29.843 0.00 71 0.000
8/18/17 10:35a 75.4 83 69.9 4.0 WNW 9.0 75.4 29.844 0.00 73 0.000
8/18/17 10:30a 75.1 83 69.6 2.0 W 8.0 75.1 29.840 0.00 87 0.000
8/18/17 10:25a 75.2 83 69.7 2.0 W 7.0 75.2 29.841 0.00 71 0.000
8/18/17 10:20a 75.2 84 70.0 2.0 WNW 5.0 75.2 29.840 0.00 179 0.000
8/18/17 10:15a 75.1 85 70.3 1.0 SSE 4.0 75.1 29.839 0.00 103 0.000
8/18/17 10:10a 74.8 85 70.0 3.0 WNW 9.0 74.8 29.839 0.00 146 0.000
8/18/17 10:05a 74.5 85 69.7 3.0 W 8.0 74.5 29.836 0.00 96 0.000
8/18/17 10:00a 74.4 85 69.6 2.0 WNW 8.0 74.4 29.835 0.00 90 0.003
8/18/17 9:55a 74.2 86 69.7 3.0 W 8.0 74.2 29.834 0.00 237 0.000
8/18/17 9:50a 74.0 87 69.9 2.0 WNW 4.0 74.0 29.835 0.00 102 0.000
8/18/17 9:45a 73.7 87 69.6 2.0 W 7.0 73.7 29.835 0.00 55 0.000
8/18/17 9:40a 73.6 87 69.5 2.0 WNW 6.0 73.6 29.836 0.00 63 0.000
8/18/17 9:35a 73.6 87 69.5 2.0 WNW 8.0 73.6 29.837 0.00 74 0.000
8/18/17 9:30a 73.6 87 69.5 2.0 S 8.0 73.6 29.838 0.00 100 0.000
8/18/17 9:25a 73.6 88 69.8 1.0 WSW 6.0 73.6 29.837 0.00 135 0.000
8/18/17 9:20a 73.4 88 69.6 2.0 WNW 6.0 73.4 29.834 0.00 116 0.000
8/18/17 9:15a 73.0 88 69.2 3.0 W 10.0 73.0 29.833 0.00 135 0.000
8/18/17 9:10a 72.9 89 69.5 3.0 W 9.0 72.9 29.830 0.00 105 0.000
8/18/17 9:05a 72.8 90 69.7 3.0 W 9.0 72.8 29.831 0.00 86 0.000
8/18/17 9:00a 72.7 90 69.6 1.0 W 8.0 72.7 29.828 0.00 61 0.001
8/18/17 8:55a 72.6 90 69.5 2.0 W 8.0 72.6 29.828 0.00 55 0.000
8/18/17 8:50a 72.7 91 69.9 1.0 W 3.0 72.7 29.825 0.00 71 0.000
8/18/17 8:45a 72.5 91 69.7 1.0 WNW 7.0 72.5 29.825 0.00 49 0.000
8/18/17 8:40a 72.3 91 69.5 2.0 W 7.0 72.3 29.823 0.00 39 0.000
8/18/17 8:35a 72.3 91 69.5 1.0 W 4.0 72.3 29.820 0.00 34 0.000
8/18/17 8:30a 72.3 91 69.5 0.0 SSW 1.0 72.3 29.821 0.00 32 0.000
8/18/17 8:25a 72.2 91 69.4 1.0 SSW 4.0 72.2 29.821 0.00 34 0.000
8/18/17 8:20a 72.2 91 69.4 1.0 SSW 3.0 72.2 29.819 0.00 34 0.000
8/18/17 8:15a 72.2 91 69.4 0.0 WSW 2.0 72.2 29.818 0.00 32 0.000
8/18/17 8:10a 72.2 91 69.4 0.0 SW 2.0 72.2 29.816 0.00 28 0.000
8/18/17 8:05a 72.2 91 69.4 0.0 WSW 2.0 72.2 29.817 0.00 26 0.000
8/18/17 8:00a 72.1 91 69.3 0.0 W 2.0 72.1 29.816 0.00 26 0.001
8/18/17 7:55a 72.1 91 69.3 0.0 SSE 2.0 72.1 29.816 0.00 26 0.000
8/18/17 7:50a 72.1 91 69.3 1.0 SSE 3.0 72.1 29.815 0.00 28 0.000
8/18/17 7:45a 72.1 91 69.3 0.0 W 1.0 72.1 29.815 0.00 29 0.000
8/18/17 7:40a 72.1 91 69.3 0.0 SSW 4.0 72.1 29.814 0.00 23 0.000
8/18/17 7:35a 72.1 91 69.3 0.0 WNW 2.0 72.1 29.815 0.00 24 0.000
8/18/17 7:30a 72.2 91 69.4 0.0 --- 0.0 72.2 29.814 0.00 17 0.000
8/18/17 7:25a 72.2 91 69.4 0.0 --- 0.0 72.2 29.815 0.00 13 0.000
8/18/17 7:20a 72.2 91 69.4 0.0 --- 0.0 72.2 29.813 0.00 11 0.000
8/18/17 7:15a 72.3 91 69.5 0.0 --- 0.0 72.3 29.811 0.00 7 0.000
8/18/17 7:10a 72.3 91 69.5 0.0 --- 0.0 72.3 29.811 0.00 4 0.000
8/18/17 7:05a 72.3 91 69.5 0.0 --- 0.0 72.3 29.807 0.00 0 0.000
8/18/17 7:00a 72.4 91 69.6 0.0 SW 1.0 72.4 29.807 0.00 0 0.000
8/18/17 6:55a 72.4 91 69.6 0.0 W 2.0 72.4 29.810 0.00 0 0.000
8/18/17 6:50a 72.5 91 69.7 1.0 S 3.0 72.5 29.808 0.00 0 0.000
8/18/17 6:45a 72.6 91 69.8 0.0 NW 2.0 72.6 29.812 0.00 0 0.000
8/18/17 6:40a 72.6 91 69.8 0.0 SSW 1.0 72.6 29.812 0.00 0 0.000
8/18/17 6:35a 72.6 91 69.8 0.0 S 3.0 72.6 29.811 0.00 0 0.000
8/18/17 6:30a 72.7 91 69.9 0.0 S 2.0 72.7 29.808 0.00 0 0.000
8/18/17 6:25a 72.8 91 70.0 0.0 WSW 2.0 72.8 29.810 0.00 0 0.000
8/18/17 6:20a 72.9 91 70.1 0.0 SSW 2.0 72.9 29.808 0.00 0 0.000
8/18/17 6:15a 72.9 91 70.1 0.0 SSE 3.0 72.9 29.807 0.00 0 0.000
8/18/17 6:10a 73.0 91 70.2 0.0 --- 0.0 73.0 29.805 0.00 0 0.000
8/18/17 6:05a 73.0 91 70.2 0.0 --- 0.0 73.0 29.803 0.00 0 0.000
8/18/17 6:00a 73.1 91 70.3 0.0 --- 0.0 73.1 29.803 0.00 0 0.000
8/18/17 5:55a 73.1 91 70.3 0.0 --- 0.0 73.1 29.804 0.00 0 0.000
8/18/17 5:50a 73.1 91 70.3 0.0 --- 0.0 73.1 29.801 0.00 0 0.000
8/18/17 5:45a 73.2 91 70.4 0.0 W 4.0 73.2 29.798 0.00 0 0.000
8/18/17 5:40a 73.2 91 70.4 0.0 SW 2.0 73.2 29.798 0.00 0 0.000
8/18/17 5:35a 73.2 91 70.4 0.0 --- 0.0 73.2 29.794 0.00 0 0.000
8/18/17 5:30a 73.2 91 70.4 0.0 SSE 1.0 73.2 29.794 0.00 0 0.000
8/18/17 5:25a 73.1 91 70.3 0.0 SSE 1.0 73.1 29.792 0.00 0 0.000
8/18/17 5:20a 73.1 91 70.3 0.0 SSE 2.0 73.1 29.791 0.00 0 0.000
8/18/17 5:15a 73.1 91 70.3 0.0 --- 0.0 73.1 29.788 0.00 0 0.000
8/18/17 5:10a 73.1 91 70.3 0.0 --- 0.0 73.1 29.785 0.00 0 0.000
8/18/17 5:05a 73.1 91 70.3 0.0 S 1.0 73.1 29.782 0.00 0 0.000
8/18/17 5:00a 73.1 91 70.3 0.0 --- 0.0 73.1 29.780 0.00 0 0.000
8/18/17 4:55a 73.1 91 70.3 0.0 SE 3.0 73.1 29.777 0.00 0 0.000
8/18/17 4:50a 73.1 91 70.3 0.0 S 3.0 73.1 29.776 0.00 0 0.000
8/18/17 4:45a 73.1 91 70.3 0.0 S 2.0 73.1 29.776 0.00 0 0.000
8/18/17 4:40a 73.1 91 70.3 0.0 S 2.0 73.1 29.777 0.00 0 0.000
8/18/17 4:35a 73.1 91 70.3 0.0 S 3.0 73.1 29.776 0.00 0 0.000
8/18/17 4:30a 73.1 91 70.3 0.0 S 2.0 73.1 29.776 0.00 0 0.000
8/18/17 4:25a 73.1 91 70.3 0.0 SW 2.0 73.1 29.774 0.00 0 0.000
8/18/17 4:20a 73.1 91 70.3 0.0 --- 0.0 73.1 29.774 0.00 0 0.000
8/18/17 4:15a 73.1 91 70.3 0.0 S 2.0 73.1 29.775 0.00 0 0.000
8/18/17 4:10a 73.1 91 70.3 1.0 S 3.0 73.1 29.774 0.00 0 0.000
8/18/17 4:05a 73.0 91 70.2 1.0 S 3.0 73.0 29.774 0.00 0 0.000
8/18/17 4:00a 73.0 91 70.2 1.0 S 5.0 73.0 29.773 0.00 0 0.000
8/18/17 3:55a 73.0 91 70.2 1.0 SSE 3.0 73.0 29.777 0.00 0 0.000
8/18/17 3:50a 73.0 91 70.2 0.0 SSE 2.0 73.0 29.776 0.00 0 0.000
8/18/17 3:45a 73.0 91 70.2 1.0 S 4.0 73.0 29.777 0.00 0 0.000
8/18/17 3:40a 73.0 91 70.2 1.0 SSW 5.0 73.0 29.777 0.00 0 0.000
8/18/17 3:35a 73.0 91 70.2 1.0 SSW 4.0 73.0 29.776 0.00 0 0.000
8/18/17 3:30a 73.0 91 70.2 0.0 SW 2.0 73.0 29.776 0.00 0 0.000
8/18/17 3:25a 73.0 91 70.2 1.0 S 5.0 73.0 29.776 0.00 0 0.000
8/18/17 3:20a 73.0 91 70.2 2.0 SSE 5.0 73.0 29.777 0.00 0 0.000
8/18/17 3:15a 73.0 91 70.2 1.0 S 4.0 73.0 29.778 0.00 0 0.000
8/18/17 3:10a 73.0 91 70.2 1.0 S 6.0 73.0 29.779 0.00 0 0.000
8/18/17 3:05a 73.0 91 70.2 1.0 SSW 4.0 73.0 29.778 0.00 0 0.000
8/18/17 3:00a 73.0 91 70.2 1.0 S 4.0 73.0 29.777 0.00 0 0.000
8/18/17 2:55a 73.0 91 70.2 1.0 S 6.0 73.0 29.775 0.00 0 0.000
8/18/17 2:50a 73.0 91 70.2 0.0 S 4.0 73.0 29.776 0.00 0 0.000
8/18/17 2:45a 73.0 91 70.2 1.0 SSE 4.0 73.0 29.776 0.00 0 0.000
8/18/17 2:40a 73.0 91 70.2 1.0 S 5.0 73.0 29.776 0.00 0 0.000
8/18/17 2:35a 73.0 91 70.2 1.0 SSE 3.0 73.0 29.778 0.00 0 0.000
8/18/17 2:30a 73.0 91 70.2 0.0 S 4.0 73.0 29.782 0.00 0 0.000
8/18/17 2:25a 72.9 91 70.1 1.0 S 4.0 72.9 29.779 0.00 0 0.000
8/18/17 2:20a 72.9 91 70.1 0.0 S 2.0 72.9 29.780 0.00 0 0.000
8/18/17 2:15a 72.9 91 70.1 1.0 S 4.0 72.9 29.780 0.00 0 0.000
8/18/17 2:10a 72.9 91 70.1 1.0 S 4.0 72.9 29.783 0.00 0 0.000
8/18/17 2:05a 72.9 91 70.1 0.0 SSE 3.0 72.9 29.785 0.00 0 0.000
8/18/17 2:00a 72.8 91 70.0 0.0 SSW 3.0 72.8 29.787 0.00 0 0.000
8/18/17 1:55a 72.8 91 70.0 2.0 SSW 5.0 72.8 29.789 0.00 0 0.000
8/18/17 1:50a 72.8 91 70.0 1.0 S 3.0 72.8 29.791 0.00 0 0.000
8/18/17 1:45a 72.8 91 70.0 1.0 SSW 4.0 72.8 29.792 0.00 0 0.000
8/18/17 1:40a 72.8 91 70.0 1.0 S 3.0 72.8 29.795 0.00 0 0.000
8/18/17 1:35a 72.8 91 70.0 1.0 S 5.0 72.8 29.797 0.00 0 0.000
8/18/17 1:30a 72.8 91 70.0 1.0 SSW 4.0 72.8 29.799 0.00 0 0.000
8/18/17 1:25a 72.7 91 69.9 2.0 SSW 6.0 72.7 29.799 0.00 0 0.000
8/18/17 1:20a 72.7 91 69.9 2.0 S 6.0 72.7 29.799 0.00 0 0.000
8/18/17 1:15a 72.7 91 69.9 2.0 SSW 5.0 72.7 29.802 0.00 0 0.000
8/18/17 1:10a 72.6 91 69.8 2.0 SSW 5.0 72.6 29.801 0.00 0 0.000
8/18/17 1:05a 72.6 91 69.8 2.0 S 4.0 72.6 29.801 0.00 0 0.000
8/18/17 1:00a 72.6 91 69.8 2.0 S 5.0 72.6 29.801 0.00 0 0.000
8/18/17 12:55a 72.6 91 69.8 1.0 SSW 3.0 72.6 29.802 0.00 0 0.000
8/18/17 12:50a 72.6 91 69.8 1.0 S 3.0 72.6 29.800 0.00 0 0.000
8/18/17 12:45a 72.6 91 69.8 0.0 SSE 4.0 72.6 29.801 0.00 0 0.000
8/18/17 12:40a 72.6 91 69.8 1.0 SSW 5.0 72.6 29.805 0.00 0 0.000
8/18/17 12:35a 72.6 91 69.8 2.0 S 5.0 72.6 29.806 0.00 0 0.000
8/18/17 12:30a 72.7 91 69.9 2.0 S 5.0 72.7 29.806 0.00 0 0.000
8/18/17 12:25a 72.7 91 69.9 2.0 S 5.0 72.7 29.809 0.00 0 0.000
8/18/17 12:20a 72.7 91 69.9 1.0 SSW 6.0 72.7 29.810 0.00 0 0.000
8/18/17 12:15a 72.7 91 69.9 1.0 S 5.0 72.7 29.811 0.00 0 0.000
8/18/17 12:10a 72.8 91 70.0 1.0 S 5.0 72.8 29.812 0.00 0 0.000
8/18/17 12:05a 72.7 91 69.9 1.0 SSW 3.0 72.7 29.813 0.00 0 0.000
8/18/17 12:00a 72.7 91 69.9 2.0 S 5.0 72.7 29.815 0.00 0 0.000
8/17/17 11:55p 72.7 91 69.9 2.0 SSW 5.0 72.7 29.813 0.00 0 0.000
8/17/17 11:50p 72.7 91 69.9 1.0 S 4.0 72.7 29.814 0.00 0 0.000
8/17/17 11:45p 72.7 91 69.9 1.0 S 4.0 72.7 29.815 0.00 0 0.000
8/17/17 11:40p 72.7 91 69.9 1.0 SSW 5.0 72.7 29.814 0.00 0 0.000
8/17/17 11:35p 72.7 91 69.9 1.0 S 3.0 72.7 29.818 0.00 0 0.000
8/17/17 11:30p 72.7 91 69.9 1.0 S 3.0 72.7 29.817 0.00 0 0.000
8/17/17 11:25p 72.7 91 69.9 0.0 S 3.0 72.7 29.819 0.00 0 0.000
8/17/17 11:20p 72.7 91 69.9 0.0 S 3.0 72.7 29.816 0.00 0 0.000
8/17/17 11:15p 72.8 91 70.0 0.0 S 3.0 72.8 29.815 0.00 0 0.000
8/17/17 11:10p 72.8 91 70.0 1.0 S 4.0 72.8 29.815 0.00 0 0.000
8/17/17 11:05p 72.7 91 69.9 0.0 --- 0.0 72.7 29.815 0.00 0 0.000
8/17/17 11:00p 72.8 91 70.0 1.0 SSW 4.0 72.8 29.814 0.00 0 0.000
8/17/17 10:55p 72.8 91 70.0 0.0 SSW 2.0 72.8 29.811 0.00 0 0.000
8/17/17 10:50p 72.8 91 70.0 1.0 SSW 3.0 72.8 29.810 0.00 0 0.000
8/17/17 10:45p 72.9 91 70.1 1.0 S 3.0 72.9 29.812 0.00 0 0.000
8/17/17 10:40p 72.9 91 70.1 1.0 S 3.0 72.9 29.812 0.00 0 0.000
8/17/17 10:35p 72.9 91 70.1 1.0 SSW 3.0 72.9 29.815 0.00 0 0.000
8/17/17 10:30p 73.0 91 70.2 0.0 SSW 2.0 73.0 29.815 0.00 0 0.000
8/17/17 10:25p 72.9 91 70.1 1.0 SSW 4.0 72.9 29.816 0.00 0 0.000
8/17/17 10:20p 72.9 91 70.1 1.0 SSW 4.0 72.9 29.818 0.00 0 0.000
8/17/17 10:15p 72.9 91 70.1 1.0 SSW 3.0 72.9 29.815 0.00 0 0.000
8/17/17 10:10p 72.9 91 70.1 0.0 --- 0.0 72.9 29.815 0.00 0 0.000
8/17/17 10:05p 72.9 91 70.1 0.0 SSE 1.0 72.9 29.815 0.00 0 0.000
8/17/17 10:00p 73.0 90 69.9 0.0 SSE 2.0 73.0 29.813 0.00 0 0.000
8/17/17 9:55p 73.0 90 69.9 1.0 SSE 3.0 73.0 29.812 0.00 0 0.000
8/17/17 9:50p 73.0 90 69.9 0.0 --- 0.0 73.0 29.809 0.00 0 0.000
8/17/17 9:45p 73.0 90 69.9 0.0 --- 0.0 73.0 29.807 0.00 0 0.000
8/17/17 9:40p 73.0 90 69.9 1.0 SSW 4.0 73.0 29.803 0.00 0 0.000
8/17/17 9:35p 73.0 90 69.9 1.0 SSE 3.0 73.0 29.802 0.00 0 0.000
8/17/17 9:30p 73.1 90 70.0 2.0 S 5.0 73.1 29.805 0.00 0 0.000
8/17/17 9:25p 73.1 90 70.0 2.0 S 5.0 73.1 29.805 0.00 0 0.000
8/17/17 9:20p 73.1 90 70.0 1.0 S 4.0 73.1 29.805 0.00 0 0.000
8/17/17 9:15p 73.3 90 70.2 2.0 S 7.0 73.3 29.801 0.00 0 0.000
8/17/17 9:10p 73.4 90 70.3 1.0 SSW 4.0 73.4 29.806 0.00 0 0.000
8/17/17 9:05p 73.5 90 70.4 2.0 S 8.0 73.5 29.808 0.00 0 0.000
8/17/17 9:00p 73.7 90 70.6 1.0 S 4.0 73.7 29.809 0.00 0 0.001
8/17/17 8:55p 73.9 90 70.8 2.0 SW 4.0 73.9 29.809 0.00 0 0.000
8/17/17 8:50p 74.2 90 71.1 2.0 SSW 7.0 74.2 29.811 0.01 0 0.000
8/17/17 8:45p 74.7 90 71.6 2.0 SSW 6.0 74.7 29.809 0.00 0 0.000
8/17/17 8:40p 74.9 90 71.8 2.0 S 7.0 74.9 29.807 0.02 0 0.000
8/17/17 8:35p 75.2 89 71.7 1.0 SSW 6.0 75.2 29.805 0.02 0 0.000
8/17/17 8:30p 75.5 89 72.0 3.0 SSW 7.0 75.5 29.808 0.05 0 0.000
8/17/17 8:25p 75.8 89 72.3 5.0 SSW 12.0 75.8 29.806 0.01 0 0.000
8/17/17 8:20p 76.0 88 72.2 5.0 SSW 13.0 76.0 29.802 0.01 0 0.000
8/17/17 8:15p 76.3 89 72.8 2.0 S 6.0 76.3 29.802 0.00 0 0.000
8/17/17 8:10p 76.4 88 72.6 2.0 S 5.0 76.4 29.805 0.01 0 0.000
8/17/17 8:05p 76.6 88 72.8 2.0 SSW 6.0 76.6 29.798 0.00 0 0.000
8/17/17 8:00p 76.7 87 72.5 2.0 S 5.0 76.7 29.794 0.00 0 0.001
8/17/17 7:55p 76.8 87 72.6 3.0 S 6.0 76.8 29.794 0.00 0 0.000
8/17/17 7:50p 76.9 87 72.7 3.0 SSW 6.0 76.9 29.795 0.00 4 0.000
8/17/17 7:45p 77.1 87 72.9 3.0 SSW 6.0 77.1 29.796 0.00 13 0.000
8/17/17 7:40p 77.2 86 72.7 3.0 SSW 7.0 77.2 29.798 0.00 18 0.000
8/17/17 7:35p 77.4 87 73.2 3.0 SSW 7.0 77.4 29.796 0.00 27 0.000
8/17/17 7:30p 77.6 86 73.1 3.0 S 6.0 77.6 29.789 0.00 31 0.000
8/17/17 7:25p 77.8 86 73.3 2.0 SSW 6.0 77.8 29.785 0.00 31 0.000
8/17/17 7:20p 78.0 86 73.5 2.0 S 6.0 78.0 29.787 0.00 27 0.000
8/17/17 7:15p 78.1 86 73.6 2.0 S 6.0 78.1 29.782 0.00 30 0.000
8/17/17 7:10p 78.2 86 73.7 3.0 S 7.0 78.2 29.783 0.00 65 0.000
8/17/17 7:05p 78.3 86 73.8 2.0 S 5.0 78.3 29.784 0.00 120 0.000
8/17/17 7:00p 78.2 85 73.3 2.0 S 5.0 78.2 29.788 0.00 100 0.005
8/17/17 6:55p 78.3 86 73.8 2.0 S 6.0 78.3 29.789 0.00 69 0.000
8/17/17 6:50p 78.3 86 73.8 1.0 SW 5.0 78.3 29.790 0.00 71 0.000
8/17/17 6:45p 78.3 86 73.8 2.0 S 6.0 78.3 29.789 0.00 91 0.000
8/17/17 6:40p 78.4 85 73.5 3.0 S 10.0 78.4 29.789 0.00 135 0.000
8/17/17 6:35p 78.6 85 73.7 3.0 S 6.0 78.6 29.785 0.00 201 0.000
8/17/17 6:30p 78.5 85 73.6 2.0 SSW 5.0 78.5 29.787 0.00 210 0.000
8/17/17 6:25p 78.2 85 73.3 2.0 SSW 6.0 78.2 29.785 0.00 224 0.000
8/17/17 6:20p 78.0 85 73.1 3.0 S 6.0 78.0 29.786 0.00 209 0.000
8/17/17 6:15p 77.9 85 73.0 3.0 SSW 7.0 77.9 29.788 0.00 197 0.000
8/17/17 6:10p 77.7 86 73.2 3.0 SSW 6.0 77.7 29.786 0.00 342 0.000
8/17/17 6:05p 77.3 86 72.8 3.0 SSW 7.0 77.3 29.786 0.00 252 0.000
8/17/17 6:00p 77.1 86 72.6 3.0 SSW 8.0 77.1 29.788 0.00 161 0.007
8/17/17 5:55p 77.1 86 72.6 3.0 S 6.0 77.1 29.788 0.00 131 0.000
8/17/17 5:50p 77.2 86 72.7 4.0 S 6.0 77.2 29.791 0.00 123 0.000
8/17/17 5:45p 77.3 86 72.8 3.0 SSW 8.0 77.3 29.792 0.00 127 0.000
8/17/17 5:40p 77.3 86 72.8 4.0 S 7.0 77.3 29.794 0.00 136 0.000
8/17/17 5:35p 77.4 87 73.2 1.0 S 4.0 77.4 29.794 0.00 147 0.000
8/17/17 5:30p 77.1 86 72.6 4.0 S 11.0 77.1 29.793 0.00 177 0.000
8/17/17 5:25p 76.9 87 72.7 3.0 S 9.0 76.9 29.792 0.00 348 0.000
8/17/17 5:20p 76.4 89 72.9 2.0 S 5.0 76.4 29.793 0.00 433 0.000
8/17/17 5:15p 75.6 89 72.1 2.0 SSW 6.0 75.6 29.793 0.00 445 0.000
8/17/17 5:10p 75.1 90 72.0 2.0 S 6.0 75.1 29.791 0.00 419 0.000
8/17/17 5:05p 74.6 90 71.5 3.0 S 6.0 74.6 29.790 0.00 366 0.000
8/17/17 5:00p 74.2 90 71.1 2.0 SSE 7.0 74.2 29.792 0.00 402 0.003
8/17/17 4:55p 73.6 91 70.8 0.0 S 2.0 73.6 29.794 0.00 359 0.000
8/17/17 4:50p 73.1 90 70.0 1.0 S 4.0 73.1 29.795 0.00 269 0.000
8/17/17 4:45p 72.9 90 69.8 2.0 SSW 8.0 72.9 29.802 0.00 181 0.000
8/17/17 4:40p 72.7 90 69.6 2.0 S 4.0 72.7 29.808 0.00 114 0.000
8/17/17 4:35p 72.6 90 69.5 3.0 S 6.0 72.6 29.809 0.00 65 0.000
8/17/17 4:30p 72.7 90 69.6 3.0 S 5.0 72.7 29.809 0.00 41 0.000
8/17/17 4:25p 72.7 90 69.6 2.0 S 7.0 72.7 29.808 0.00 31 0.000
8/17/17 4:20p 72.8 90 69.7 2.0 S 4.0 72.8 29.806 0.00 26 0.000
8/17/17 4:15p 73.0 90 69.9 1.0 S 2.0 73.0 29.804 0.00 20 0.000
8/17/17 4:10p 73.1 90 70.0 1.0 S 5.0 73.1 29.801 0.00 18 0.000
8/17/17 4:05p 73.4 89 70.0 2.0 SSW 6.0 73.4 29.800 0.00 16 0.000
8/17/17 4:00p 73.7 89 70.3 2.0 SSE 6.0 73.7 29.798 0.00 14 0.002
8/17/17 3:55p 74.0 89 70.6 4.0 SSW 9.0 74.0 29.805 0.01 12 0.000
8/17/17 3:50p 74.4 89 70.9 4.0 SSW 10.0 74.4 29.808 0.01 12 0.000
8/17/17 3:45p 74.7 89 71.2 5.0 SSW 12.0 74.7 29.808 0.00 14 0.000
8/17/17 3:40p 74.7 89 71.2 3.0 W 11.0 74.7 29.797 0.01 14 0.000
8/17/17 3:35p 74.9 88 71.1 3.0 WNW 11.0 74.9 29.796 0.04 11 0.000
8/17/17 3:30p 75.7 87 71.6 6.0 WNW 17.0 75.7 29.822 0.35 1 0.000
8/17/17 3:25p 77.5 84 72.3 11.0 WNW 28.0 75.3 29.812 0.39 0 0.000
8/17/17 3:20p 83.1 75 74.4 9.0 WNW 23.0 82.3 29.804 0.11 2 0.000
8/17/17 3:15p 86.6 65 73.4 5.0 WNW 16.0 86.6 29.784 0.00 20 0.000
8/17/17 3:10p 87.0 64 73.3 4.0 S 13.0 87.0 29.768 0.00 80 0.000
8/17/17 3:05p 87.3 64 73.6 4.0 S 11.0 87.3 29.768 0.00 152 0.000
8/17/17 3:00p 87.6 65 74.4 3.0 S 8.0 87.6 29.771 0.00 213 0.019
8/17/17 2:55p 87.5 67 75.2 3.0 S 12.0 87.5 29.775 0.00 281 0.000
8/17/17 2:50p 87.7 65 74.5 6.0 SSW 14.0 87.7 29.775 0.00 249 0.000
8/17/17 2:45p 88.2 65 74.9 5.0 SSW 13.0 88.2 29.773 0.00 747 0.000
8/17/17 2:40p 88.0 66 75.2 7.0 S 14.0 88.0 29.777 0.00 928 0.000
8/17/17 2:35p 87.9 66 75.1 7.0 S 21.0 87.9 29.782 0.00 951 0.000
8/17/17 2:30p 87.5 67 75.2 7.0 S 16.0 87.5 29.786 0.00 548 0.000
8/17/17 2:25p 87.7 65 74.5 7.0 SSW 18.0 87.7 29.784 0.00 595 0.000
8/17/17 2:20p 87.7 66 74.9 6.0 SSE 20.0 87.7 29.786 0.00 900 0.000
8/17/17 2:15p 87.4 67 75.1 6.0 SSW 11.0 87.4 29.789 0.00 904 0.000
8/17/17 2:10p 87.4 67 75.1 7.0 S 16.0 87.4 29.790 0.00 830 0.000
8/17/17 2:05p 87.5 67 75.2 7.0 S 16.0 87.5 29.790 0.00 914 0.000
8/17/17 2:00p 87.3 68 75.4 4.0 S 9.0 87.3 29.797 0.00 867 0.021
8/17/17 1:55p 87.1 67 74.8 5.0 SSW 12.0 87.1 29.798 0.00 986 0.000
8/17/17 1:50p 87.1 67 74.8 7.0 SSW 15.0 87.1 29.801 0.00 975 0.000
8/17/17 1:45p 87.2 67 74.9 6.0 SSW 15.0 87.2 29.803 0.00 960 0.000
8/17/17 1:40p 87.0 69 75.6 6.0 S 14.0 87.0 29.807 0.00 832 0.000
8/17/17 1:35p 87.0 67 74.7 5.0 SSW 13.0 87.0 29.814 0.00 919 0.000
8/17/17 1:30p 86.6 72 76.5 4.0 SSE 14.0 86.6 29.817 0.00 907 0.000
8/17/17 1:25p 86.1 71 75.6 4.0 SSE 10.0 86.1 29.818 0.00 877 0.000
8/17/17 1:20p 85.7 71 75.2 5.0 S 11.0 85.7 29.817 0.00 909 0.000
8/17/17 1:15p 85.6 70 74.7 6.0 S 14.0 85.6 29.816 0.00 886 0.000
8/17/17 1:10p 85.1 72 75.1 7.0 SSW 16.0 85.1 29.817 0.00 924 0.000
8/17/17 1:05p 84.6 73 75.0 4.0 S 10.0 84.6 29.819 0.00 860 0.000
8/17/17 1:00p 84.2 73 74.6 6.0 S 13.0 84.2 29.823 0.00 251 0.015
8/17/17 12:55p 84.6 72 74.6 8.0 SSW 20.0 84.4 29.825 0.00 826 0.000
8/17/17 12:50p 84.8 74 75.6 5.0 SSW 11.0 84.8 29.828 0.00 796 0.000
8/17/17 12:45p 84.6 74 75.4 4.0 S 11.0 84.6 29.833 0.00 397 0.000
8/17/17 12:40p 84.3 76 75.9 4.0 SSW 10.0 84.3 29.834 0.00 684 0.000
8/17/17 12:35p 83.7 76 75.3 4.0 SSE 9.0 83.7 29.837 0.00 387 0.000
8/17/17 12:30p 83.2 78 75.6 2.0 SSE 6.0 83.2 29.840 0.00 480 0.000
8/17/17 12:25p 83.0 77 75.0 5.0 SSW 13.0 83.0 29.843 0.00 143 0.000
8/17/17 12:20p 83.5 77 75.5 6.0 SSW 11.0 83.5 29.849 0.00 356 0.000
8/17/17 12:15p 83.8 78 76.2 6.0 S 13.0 83.8 29.856 0.00 863 0.000
8/17/17 12:10p 83.7 77 75.7 5.0 S 13.0 83.7 29.852 0.00 885 0.000
8/17/17 12:05p 83.5 77 75.5 6.0 S 13.0 83.5 29.860 0.00 874 0.000
8/17/17 12:00p 83.3 78 75.7 5.0 SSW 11.0 83.3 29.859 0.00 534 0.011
8/17/17 11:55a 83.3 77 75.3 5.0 S 12.0 83.3 29.856 0.00 220 0.000
8/17/17 11:50a 83.2 80 76.4 4.0 SSE 9.0 83.2 29.854 0.00 471 0.000
8/17/17 11:45a 83.1 80 76.3 4.0 SSW 8.0 83.1 29.857 0.00 723 0.000
8/17/17 11:40a 82.6 80 75.8 5.0 SSE 10.0 82.6 29.859 0.00 596 0.000
8/17/17 11:35a 82.4 81 76.0 5.0 S 11.0 82.4 29.858 0.00 713 0.000
8/17/17 11:30a 81.9 81 75.5 3.0 S 7.0 81.9 29.861 0.00 159 0.000
8/17/17 11:25a 82.1 80 75.3 4.0 SSW 11.0 82.1 29.864 0.00 235 0.000
8/17/17 11:20a 82.4 81 76.0 3.0 SSW 8.0 82.4 29.861 0.00 235 0.000
8/17/17 11:15a 82.3 81 75.9 4.0 S 11.0 82.3 29.863 0.00 164 0.000
8/17/17 11:10a 82.1 81 75.7 5.0 SSW 12.0 82.1 29.862 0.00 193 0.000
8/17/17 11:05a 82.0 80 75.2 4.0 S 9.0 82.0 29.861 0.00 228 0.000
8/17/17 11:00a 81.7 82 75.7 4.0 SSE 8.0 81.7 29.862 0.00 240 0.005
8/17/17 10:55a 81.3 82 75.3 5.0 S 12.0 81.3 29.866 0.00 256 0.000
8/17/17 10:50a 81.3 82 75.3 4.0 S 9.0 81.3 29.868 0.00 268 0.000
8/17/17 10:45a 81.1 84 75.8 3.0 S 9.0 81.1 29.868 0.00 181 0.000
8/17/17 10:40a 80.9 83 75.2 4.0 S 9.0 80.9 29.868 0.00 212 0.000
8/17/17 10:35a 80.7 84 75.4 3.0 SSW 7.0 80.7 29.872 0.00 163 0.000
8/17/17 10:30a 80.4 84 75.1 3.0 SSW 7.0 80.4 29.874 0.00 193 0.000
8/17/17 10:25a 80.1 85 75.2 4.0 S 10.0 80.1 29.877 0.00 114 0.000
8/17/17 10:20a 79.8 85 74.9 5.0 S 9.0 79.8 29.878 0.00 103 0.000
8/17/17 10:15a 79.6 85 74.7 4.0 SSW 8.0 79.6 29.879 0.00 111 0.000
8/17/17 10:10a 79.5 85 74.6 2.0 SSW 6.0 79.5 29.879 0.00 94 0.000
8/17/17 10:05a 79.3 86 74.7 3.0 S 7.0 79.3 29.881 0.00 140 0.000
8/17/17 10:00a 78.9 86 74.4 5.0 S 10.0 78.9 29.881 0.00 176 0.003
8/17/17 9:55a 78.7 86 74.2 4.0 SSW 9.0 78.7 29.882 0.00 226 0.000
8/17/17 9:50a 78.4 86 73.9 4.0 SSW 8.0 78.4 29.884 0.00 136 0.000
8/17/17 9:45a 78.2 86 73.7 5.0 SSE 12.0 78.2 29.885 0.00 104 0.000
8/17/17 9:40a 78.0 87 73.8 4.0 S 12.0 78.0 29.884 0.00 77 0.000
8/17/17 9:35a 77.7 87 73.5 3.0 SSW 9.0 77.7 29.887 0.00 69 0.000
8/17/17 9:30a 77.4 88 73.6 2.0 SSE 9.0 77.4 29.890 0.00 96 0.000
8/17/17 9:25a 77.2 88 73.4 3.0 SSW 8.0 77.2 29.888 0.00 72 0.000
8/17/17 9:20a 77.0 88 73.2 3.0 SSW 8.0 77.0 29.888 0.00 71 0.000
8/17/17 9:15a 76.8 88 73.0 3.0 SSW 7.0 76.8 29.889 0.00 86 0.000
8/17/17 9:10a 76.6 89 73.1 2.0 SSE 6.0 76.6 29.889 0.00 62 0.000
8/17/17 9:05a 76.2 89 72.7 3.0 SSW 9.0 76.2 29.891 0.00 63 0.000
8/17/17 9:00a 76.0 89 72.5 3.0 SSW 9.0 76.0 29.894 0.00 59 0.002
8/17/17 8:55a 75.8 89 72.3 3.0 S 7.0 75.8 29.896 0.00 55 0.000
8/17/17 8:50a 75.7 89 72.2 3.0 S 6.0 75.7 29.895 0.00 69 0.000
8/17/17 8:45a 75.6 89 72.1 2.0 S 6.0 75.6 29.898 0.00 74 0.000
8/17/17 8:40a 75.5 89 72.0 2.0 S 6.0 75.5 29.898 0.00 85 0.000
8/17/17 8:35a 75.3 89 71.8 2.0 SSE 7.0 75.3 29.895 0.00 89 0.000
8/17/17 8:30a 75.0 90 71.9 2.0 S 6.0 75.0 29.896 0.00 59 0.000
8/17/17 8:25a 74.8 90 71.7 2.0 S 7.0 74.8 29.893 0.00 44 0.000
8/17/17 8:20a 74.7 90 71.6 2.0 S 6.0 74.7 29.890 0.00 46 0.000
8/17/17 8:15a 74.4 90 71.3 3.0 S 7.0 74.4 29.891 0.00 49 0.000
8/17/17 8:10a 74.3 90 71.2 2.0 S 5.0 74.3 29.889 0.00 39 0.000
8/17/17 8:05a 74.1 90 71.0 3.0 S 8.0 74.1 29.887 0.00 33 0.000
8/17/17 8:00a 74.0 90 70.9 2.0 S 6.0 74.0 29.890 0.00 39 0.001
8/17/17 7:55a 73.8 90 70.7 2.0 S 5.0 73.8 29.891 0.00 52 0.000
8/17/17 7:50a 73.6 90 70.5 1.0 SSW 5.0 73.6 29.893 0.00 50 0.000
8/17/17 7:45a 73.5 90 70.4 2.0 SSW 5.0 73.5 29.889 0.00 28 0.000
8/17/17 7:40a 73.3 90 70.2 2.0 S 5.0 73.3 29.887 0.00 23 0.000
8/17/17 7:35a 73.3 90 70.2 2.0 S 5.0 73.3 29.884 0.00 18 0.000
8/17/17 7:30a 73.2 90 70.1 2.0 S 4.0 73.2 29.886 0.00 16 0.000
8/17/17 7:25a 73.1 90 70.0 1.0 SSE 4.0 73.1 29.887 0.00 14 0.000
8/17/17 7:20a 73.1 90 70.0 1.0 S 4.0 73.1 29.887 0.00 11 0.000
8/17/17 7:15a 73.0 90 69.9 1.0 SSW 3.0 73.0 29.884 0.00 7 0.000
8/17/17 7:10a 73.0 90 69.9 2.0 SSW 5.0 73.0 29.884 0.00 3 0.000
8/17/17 7:05a 73.0 90 69.9 2.0 S 4.0 73.0 29.879 0.00 0 0.000
8/17/17 7:00a 73.1 90 70.0 2.0 S 5.0 73.1 29.879 0.00 0 0.000
8/17/17 6:55a 73.1 90 70.0 2.0 S 6.0 73.1 29.878 0.00 0 0.000
8/17/17 6:50a 73.1 90 70.0 2.0 S 7.0 73.1 29.877 0.00 0 0.000
8/17/17 6:45a 73.1 90 70.0 2.0 S 5.0 73.1 29.877 0.00 0 0.000
8/17/17 6:40a 73.2 90 70.1 2.0 SSW 5.0 73.2 29.877 0.00 0 0.000
8/17/17 6:35a 73.3 89 69.9 2.0 SSW 5.0 73.3 29.878 0.00 0 0.000
8/17/17 6:30a 73.3 89 69.9 2.0 SSW 4.0 73.3 29.875 0.00 0 0.000
8/17/17 6:25a 73.5 89 70.1 2.0 SSW 5.0 73.5 29.871 0.00 0 0.000
8/17/17 6:20a 73.5 89 70.1 2.0 S 4.0 73.5 29.869 0.00 0 0.000
8/17/17 6:15a 73.6 89 70.2 2.0 S 8.0 73.6 29.871 0.00 0 0.000
8/17/17 6:10a 73.6 89 70.2 1.0 SSW 6.0 73.6 29.870 0.00 0 0.000
8/17/17 6:05a 73.7 89 70.3 2.0 SSW 6.0 73.7 29.875 0.00 0 0.000
8/17/17 6:00a 73.7 89 70.3 2.0 SSW 6.0 73.7 29.873 0.00 0 0.001
8/17/17 5:55a 73.8 88 70.0 2.0 S 6.0 73.8 29.873 0.00 0 0.000
8/17/17 5:50a 73.9 88 70.1 2.0 S 5.0 73.9 29.876 0.00 0 0.000
8/17/17 5:45a 74.0 88 70.2 2.0 SSW 5.0 74.0 29.876 0.00 0 0.000
8/17/17 5:40a 74.1 88 70.3 2.0 SSW 5.0 74.1 29.874 0.00 0 0.000
8/17/17 5:35a 74.1 88 70.3 2.0 S 6.0 74.1 29.873 0.00 0 0.000
8/17/17 5:30a 74.2 88 70.4 2.0 S 7.0 74.2 29.873 0.00 0 0.000
8/17/17 5:25a 74.2 88 70.4 2.0 S 5.0 74.2 29.876 0.00 0 0.000
8/17/17 5:20a 74.3 88 70.5 2.0 SSW 4.0 74.3 29.875 0.00 0 0.000
8/17/17 5:15a 74.2 88 70.4 2.0 S 9.0 74.2 29.877 0.00 0 0.000
8/17/17 5:10a 74.2 88 70.4 3.0 S 6.0 74.2 29.878 0.00 0 0.000
8/17/17 5:05a 74.2 87 70.1 2.0 SSW 4.0 74.2 29.875 0.00 0 0.000
8/17/17 5:00a 74.1 87 70.0 3.0 S 5.0 74.1 29.872 0.00 0 0.001
8/17/17 4:55a 74.1 87 70.0 2.0 S 4.0 74.1 29.870 0.00 0 0.000
8/17/17 4:50a 74.0 87 69.9 1.0 SSE 4.0 74.0 29.871 0.00 0 0.000
8/17/17 4:45a 74.0 87 69.9 1.0 SSW 3.0 74.0 29.870 0.00 0 0.000
8/17/17 4:40a 74.0 87 69.9 1.0 S 3.0 74.0 29.866 0.00 0 0.000
8/17/17 4:35a 74.1 86 69.6 1.0 SSW 3.0 74.1 29.863 0.00 0 0.000
8/17/17 4:30a 74.1 86 69.6 1.0 S 2.0 74.1 29.861 0.00 0 0.000
8/17/17 4:25a 74.1 86 69.6 2.0 S 5.0 74.1 29.863 0.00 0 0.000
8/17/17 4:20a 74.1 86 69.6 2.0 S 4.0 74.1 29.860 0.00 0 0.000
8/17/17 4:15a 74.0 86 69.5 1.0 SSW 4.0 74.0 29.857 0.00 0 0.000
8/17/17 4:10a 73.9 86 69.4 1.0 S 4.0 73.9 29.858 0.00 0 0.000
8/17/17 4:05a 73.9 86 69.4 2.0 SSW 6.0 73.9 29.862 0.00 0 0.000
8/17/17 4:00a 73.8 86 69.3 1.0 S 3.0 73.8 29.860 0.00 0 0.001
8/17/17 3:55a 73.9 86 69.4 2.0 SSW 3.0 73.9 29.859 0.00 0 0.000
8/17/17 3:50a 73.9 86 69.4 1.0 SSW 3.0 73.9 29.860 0.00 0 0.000
8/17/17 3:45a 74.0 86 69.5 1.0 SSW 4.0 74.0 29.861 0.00 0 0.000
8/17/17 3:40a 74.0 86 69.5 1.0 S 3.0 74.0 29.861 0.00 0 0.000
8/17/17 3:35a 74.0 86 69.5 1.0 SSW 2.0 74.0 29.862 0.00 0 0.000
8/17/17 3:30a 74.1 86 69.6 1.0 SSW 3.0 74.1 29.862 0.00 0 0.000
8/17/17 3:25a 74.1 86 69.6 2.0 SSW 4.0 74.1 29.866 0.00 0 0.000
8/17/17 3:20a 74.2 86 69.7 1.0 SSW 4.0 74.2 29.864 0.00 0 0.000
8/17/17 3:15a 74.2 86 69.7 1.0 SSW 3.0 74.2 29.866 0.00 0 0.000
8/17/17 3:10a 74.3 86 69.8 1.0 SSW 3.0 74.3 29.863 0.00 0 0.000
8/17/17 3:05a 74.3 86 69.8 0.0 SSW 2.0 74.3 29.862 0.00 0 0.000
8/17/17 3:00a 74.4 86 69.9 1.0 SSW 5.0 74.4 29.865 0.00 0 0.001
8/17/17 2:55a 74.5 85 69.7 1.0 SSW 2.0 74.5 29.867 0.00 0 0.000
8/17/17 2:50a 74.6 85 69.8 1.0 SSW 4.0 74.6 29.867 0.00 0 0.000
8/17/17 2:45a 74.6 86 70.1 2.0 S 3.0 74.6 29.869 0.00 0 0.000
8/17/17 2:40a 74.7 85 69.9 2.0 SSW 3.0 74.7 29.872 0.00 0 0.000
8/17/17 2:35a 74.7 85 69.9 1.0 SSW 3.0 74.7 29.874 0.00 0 0.000
8/17/17 2:30a 74.8 85 70.0 0.0 SSW 2.0 74.8 29.876 0.00 0 0.000
8/17/17 2:25a 74.9 85 70.1 1.0 SSW 3.0 74.9 29.880 0.00 0 0.000
8/17/17 2:20a 74.9 85 70.1 1.0 SSW 3.0 74.9 29.880 0.00 0 0.000
8/17/17 2:15a 75.0 85 70.2 2.0 SSW 3.0 75.0 29.882 0.00 0 0.000
8/17/17 2:10a 75.1 85 70.3 2.0 SSW 5.0 75.1 29.884 0.00 0 0.000
8/17/17 2:05a 75.2 85 70.4 2.0 S 4.0 75.2 29.887 0.00 0 0.000
8/17/17 2:00a 75.3 85 70.5 2.0 SSW 6.0 75.3 29.887 0.00 0 0.001
8/17/17 1:55a 75.4 85 70.6 2.0 SSW 6.0 75.4 29.889 0.00 0 0.000
8/17/17 1:50a 75.5 85 70.7 2.0 SSW 4.0 75.5 29.893 0.00 0 0.000
8/17/17 1:45a 75.6 85 70.8 2.0 SSW 5.0 75.6 29.892 0.00 0 0.000
8/17/17 1:40a 75.7 85 70.9 2.0 SSW 4.0 75.7 29.891 0.00 0 0.000
8/17/17 1:35a 75.8 85 71.0 2.0 S 3.0 75.8 29.890 0.00 0 0.000
8/17/17 1:30a 75.9 85 71.1 1.0 S 3.0 75.9 29.894 0.00 0 0.000
8/17/17 1:25a 76.0 85 71.2 1.0 S 3.0 76.0 29.895 0.00 0 0.000
8/17/17 1:20a 76.1 85 71.3 2.0 S 4.0 76.1 29.899 0.00 0 0.000
8/17/17 1:15a 76.2 85 71.4 2.0 S 4.0 76.2 29.899 0.00 0 0.000
8/17/17 1:10a 76.4 85 71.6 2.0 S 4.0 76.4 29.900 0.00 0 0.000
8/17/17 1:05a 76.5 84 71.3 1.0 SSW 3.0 76.5 29.902 0.00 0 0.000
8/17/17 1:00a 76.6 84 71.4 2.0 SSW 4.0 76.6 29.904 0.00 0 0.001
8/17/17 12:55a 76.7 84 71.5 1.0 SSW 3.0 76.7 29.904 0.00 0 0.000
8/17/17 12:50a 76.9 84 71.7 1.0 S 3.0 76.9 29.905 0.00 0 0.000
8/17/17 12:45a 77.0 83 71.4 2.0 SSW 4.0 77.0 29.905 0.00 0 0.000
8/17/17 12:40a 77.1 83 71.5 2.0 S 4.0 77.1 29.909 0.00 0 0.000
8/17/17 12:35a 77.3 83 71.7 2.0 SSW 4.0 77.3 29.908 0.00 0 0.000
8/17/17 12:30a 77.4 83 71.8 2.0 SSW 4.0 77.4 29.907 0.00 0 0.000
8/17/17 12:25a 77.6 83 72.0 2.0 SSW 5.0 77.6 29.907 0.00 0 0.000
8/17/17 12:20a 77.8 82 71.9 2.0 SSW 5.0 77.8 29.908 0.00 0 0.000
8/17/17 12:15a 78.0 82 72.1 2.0 SSW 4.0 78.0 29.910 0.00 0 0.000
8/17/17 12:10a 78.2 82 72.3 2.0 SSW 4.0 78.2 29.909 0.00 0 0.000
8/17/17 12:05a 78.4 81 72.1 1.0 SSW 3.0 78.4 29.910 0.00 0 0.000

11,557 Page Views